This is the latest recevied weather packets stored in our database for station/object WC4PEM-12. If no packets are shown the sender has not sent any weather packets the latest 10 day(s).
| Time | Temp. | Humidity | Pressure | Rain* | Wind** | Luminosity | Snow |
|---|---|---|---|---|---|---|---|
| 1777492693 | 32.78° C | 47% | 1012.9 hPa | 0 mm | - | - | - |
| 1777492393 | 32.22° C | 47% | 1012.9 hPa | 0 mm | - | - | - |
| 1777491545 | 33.33° C | 45% | 1013.2 hPa | 0 mm | - | - | - |
| 1777491493 | 33.33° C | 45% | 1013.2 hPa | 0 mm | - | - | - |
| 1777491193 | 33.33° C | 45% | 1013.2 hPa | 0 mm | - | - | - |
| 1777490988 | 33.33° C | 46% | 1013.5 hPa | 0 mm | - | - | - |
| 1777490894 | 33.33° C | 46% | 1013.5 hPa | 0 mm | - | - | - |
| 1777490593 | 33.33° C | 46% | 1013.7 hPa | 0 mm | - | - | - |
| 1777490367 | 32.78° C | 46% | 1013.7 hPa | 0 mm | - | - | - |
| 1777490293 | 32.78° C | 46% | 1013.7 hPa | 0 mm | - | - | - |
| 1777489693 | 32.78° C | 47% | 1013.9 hPa | 0 mm | - | - | - |
| 1777489093 | 32.78° C | 46% | 1014.2 hPa | 0 mm | - | - | - |
| 1777488693 | 32.78° C | 45% | 1014.4 hPa | 0 mm | - | - | - |
| 1777487947 | 32.78° C | 46% | 1014.6 hPa | 0 mm | - | - | - |
| 1777486749 | 31.67° C | 47% | 1014.8 hPa | 0 mm | - | - | - |
| 1777485494 | 31.11° C | 49% | 1015 hPa | 0 mm | - | - | - |
| 1777484894 | 31.11° C | 48% | 1015.1 hPa | 0 mm | - | - | - |
| 1777484294 | 30.56° C | 52% | 1015.3 hPa | 0 mm | - | - | - |
| 1777483994 | 30.56° C | 52% | 1015.2 hPa | 0 mm | - | - | - |
| 1777483750 | 30.56° C | 51% | 1015.6 hPa | 0 mm | - | - | - |
| 1777483694 | 30.56° C | 51% | 1015.6 hPa | 0 mm | - | - | - |
| 1777483394 | 30.56° C | 52% | 1015.6 hPa | 0 mm | - | - | - |
| 1777483131 | 30.56° C | 53% | 1015.9 hPa | 0 mm | - | - | - |
| 1777483094 | 30.56° C | 53% | 1015.9 hPa | 0 mm | - | - | - |
| 1777482794 | 30.56° C | 53% | 1015.9 hPa | 0 mm | - | - | - |
* Rain latest hour (hover to see other rain measurements)
** Current wind speed in m/s (hover to see current wind gust speed)